sim
Sign-in with your pilot id or email,
or register
Callsign
Passwort

Schedule Details

Flight Number: OEC87764
Departure: Berlin Tegel Airport (EDDT) at 08:00 UTC
Arrival: Fuerteventura Airport (GCFV) at 12:05 UTC

Weather Information
Getting current METAR information for EDDT 160250Z 13002KT CAVOK 02/M01 Q1027
Getting current METAR information for GCFV 160230Z AUTO 28005KT 9999 NCD 13/10 Q1018

Schedule Frequency

Route Map